Time;durP1;ratioP1;P1;durP2;ratioP2;P2;SDS_P1;SDS_P2;PMS_P1;PMS_P2;Temp;Humidity;BMP_temperature;BMP_pressure;BME280_temperature;BME280_humidity;BME280_pressure;Samples;Min_cycle;Max_cycle;Signal;HPM_P1;HPM_P2
2023/10/30 00:00:22;;;;;;;;;1.33;1.33;;;;;17.97;100.00;99447.84;2062620;28;45920;-56
2023/10/30 00:01:23;;;;;;;;;2.67;1.67;;;;;17.97;100.00;99452.38;2062611;28;46233;-59
2023/10/30 00:02:23;;;;;;;;;3.50;3.00;;;;;17.97;100.00;99455.03;2062866;28;46566;-60
2023/10/30 00:03:24;;;;;;;;;2.00;1.67;;;;;17.98;100.00;99451.41;2062515;28;46159;-56
2023/10/30 00:04:24;;;;;;;;;1.00;0.00;;;;;17.98;100.00;99444.19;2058179;28;46228;-58
2023/10/30 00:05:24;;;;;;;;;0.00;0.00;;;;;17.99;100.00;99445.91;2062855;28;46811;-56
2023/10/30 00:06:25;;;;;;;;;1.33;1.00;;;;;17.98;100.00;99443.34;2062870;28;46377;-58
2023/10/30 00:07:27;;;;;;;;;1.00;1.00;;;;;17.99;100.00;99442.38;2060231;28;45696;-58
2023/10/30 00:08:27;;;;;;;;;0.75;0.75;;;;;17.99;100.00;99445.06;2054503;28;46481;-54
2023/10/30 00:09:28;;;;;;;;;2.00;2.00;;;;;18.00;100.00;99441.41;2055119;28;45696;-60
2023/10/30 00:10:28;;;;;;;;;1.67;1.67;;;;;17.99;100.00;99437.84;2054252;28;46239;-58
2023/10/30 00:11:29;;;;;;;;;1.00;1.00;;;;;18.00;100.00;99444.06;2055062;28;46379;-58
2023/10/30 00:12:29;;;;;;;;;2.33;2.00;;;;;17.99;100.00;99429.81;2054245;28;46050;-59
2023/10/30 00:13:29;;;;;;;;;2.00;2.00;;;;;17.99;100.00;99431.63;2054028;28;45992;-60
2023/10/30 00:14:31;;;;;;;;;2.00;2.00;;;;;18.00;100.00;99436.88;2054482;28;46552;-59
2023/10/30 00:15:31;;;;;;;;;0.75;0.75;;;;;18.01;100.00;99432.38;2054411;28;45557;-60
2023/10/30 00:16:32;;;;;;;;;1.00;1.00;;;;;18.00;100.00;99434.19;2053913;28;46576;-59
2023/10/30 00:17:32;;;;;;;;;2.00;2.00;;;;;18.00;100.00;99427.97;2045908;28;46874;-57
2023/10/30 00:18:34;;;;;;;;;1.00;1.00;;;;;17.99;100.00;99435.16;2046092;28;45559;-57
2023/10/30 00:19:34;;;;;;;;;2.00;1.50;;;;;18.00;100.00;99433.34;2052898;28;46517;-58
2023/10/30 00:20:37;;;;;;;;;2.00;0.00;;;;;17.99;100.00;99437.00;2069983;28;46316;-59
2023/10/30 00:21:38;;;;;;;;;1.25;1.25;;;;;17.97;100.00;99445.16;2069730;28;46588;-59
2023/10/30 00:22:38;;;;;;;;;1.00;0.00;;;;;17.96;100.00;99442.59;2054445;28;46359;-59
2023/10/30 00:23:38;;;;;;;;;0.00;0.00;;;;;17.92;100.00;99442.81;2054325;28;46240;-56
2023/10/30 00:24:39;;;;;;;;;2.67;0.00;;;;;17.92;100.00;99448.19;2055165;28;45414;-54
2023/10/30 00:25:39;;;;;;;;;2.00;2.00;;;;;17.92;100.00;99456.25;2054671;28;46435;-60
2023/10/30 00:26:39;;;;;;;;;4.00;1.67;;;;;17.92;100.00;99447.34;2054589;28;46828;-53
2023/10/30 00:27:41;;;;;;;;;1.00;1.00;;;;;17.90;100.00;99450.09;2054641;28;46597;-58
2023/10/30 00:28:42;;;;;;;;;1.50;1.50;;;;;17.91;100.00;99438.44;2054460;28;46253;-58
2023/10/30 00:29:42;;;;;;;;;1.67;0.33;;;;;17.90;100.00;99442.06;2054532;28;45915;-56
2023/10/30 00:30:43;;;;;;;;;1.00;1.00;;;;;17.89;100.00;99436.78;2054856;28;46196;-57
2023/10/30 00:31:43;;;;;;;;;1.00;0.00;;;;;17.89;100.00;99439.47;2058157;28;46035;-59
2023/10/30 00:32:44;;;;;;;;;1.00;1.00;;;;;17.89;100.00;99437.66;2062352;28;46508;-58
2023/10/30 00:33:44;;;;;;;;;3.00;2.00;;;;;17.89;100.00;99437.66;2062546;28;45910;-60
2023/10/30 00:34:44;;;;;;;;;1.00;1.00;;;;;17.88;100.00;99435.94;2062135;28;46537;-60
2023/10/30 00:35:45;;;;;;;;;2.67;1.67;;;;;17.89;100.00;99434.97;2062707;28;47381;-57
2023/10/30 00:36:45;;;;;;;;;6.67;2.33;;;;;17.90;100.00;99438.50;2062569;28;46422;-59
2023/10/30 00:37:45;;;;;;;;;1.00;1.00;;;;;17.90;100.00;99439.38;2062404;28;46019;-58
2023/10/30 00:38:46;;;;;;;;;2.00;1.00;;;;;17.90;100.00;99436.69;2062792;28;46082;-54
2023/10/30 00:39:46;;;;;;;;;1.00;0.00;;;;;17.88;100.00;99441.31;2061611;28;46340;-59
2023/10/30 00:40:47;;;;;;;;;0.67;0.67;;;;;17.88;100.00;99432.41;2054108;28;46241;-60
2023/10/30 00:41:47;;;;;;;;;0.00;0.00;;;;;17.88;100.00;99435.94;2061994;28;46763;-57
2023/10/30 00:42:47;;;;;;;;;1.00;1.00;;;;;17.89;100.00;99432.28;2062560;28;46613;-61
2023/10/30 00:43:48;;;;;;;;;0.67;0.67;;;;;17.91;100.00;99443.78;2061827;28;46685;-59
2023/10/30 00:44:48;;;;;;;;;1.00;1.00;;;;;17.92;100.00;99439.28;2061938;28;46352;-61
2023/10/30 00:45:48;;;;;;;;;1.00;1.00;;;;;17.93;100.00;99430.25;2062662;28;46286;-58
2023/10/30 00:46:51;;;;;;;;;1.33;1.00;;;;;17.93;100.00;99438.31;2062603;28;46535;-60
2023/10/30 00:47:52;;;;;;;;;2.00;1.00;;;;;17.93;100.00;99438.31;2062575;28;46547;-60
2023/10/30 00:48:52;;;;;;;;;3.33;1.33;;;;;17.92;100.00;99445.50;2062515;28;47247;-56
2023/10/30 00:49:52;;;;;;;;;1.00;0.00;;;;;17.94;100.00;99437.34;2061961;28;46108;-58
2023/10/30 00:50:53;;;;;;;;;3.33;1.00;;;;;17.92;100.00;99429.41;2062604;28;46315;-59
2023/10/30 00:51:53;;;;;;;;;0.67;0.67;;;;;17.94;100.00;99437.34;2062198;28;45633;-58
2023/10/30 00:52:53;;;;;;;;;1.00;1.00;;;;;17.93;100.00;99431.13;2061853;28;46314;-59
2023/10/30 00:53:54;;;;;;;;;1.67;1.67;;;;;17.93;100.00;99431.13;2061916;28;46085;-54
2023/10/30 00:54:54;;;;;;;;;2.67;2.00;;;;;17.92;100.00;99425.88;2062494;28;46669;-58
2023/10/30 00:55:54;;;;;;;;;2.00;2.00;;;;;17.92;100.00;99432.09;2062293;28;46692;-55
2023/10/30 00:56:54;;;;;;;;;1.67;1.00;;;;;17.92;100.00;99429.41;2062530;28;46640;-59
2023/10/30 00:57:55;;;;;;;;;4.33;1.67;;;;;17.90;100.00;99423.25;2055835;28;46361;-59
2023/10/30 00:58:55;;;;;;;;;1.00;1.00;;;;;17.88;100.00;99425.22;2054450;28;46322;-59
2023/10/30 00:59:56;;;;;;;;;0.00;0.00;;;;;17.83;100.00;99424.69;2053835;28;45100;-56
2023/10/30 01:00:56;;;;;;;;;0.00;0.00;;;;;17.83;100.00;99418.47;2058308;28;45145;-54
2023/10/30 01:01:56;;;;;;;;;1.00;0.00;;;;;17.82;100.00;99425.66;2061627;28;46769;-56
2023/10/30 01:02:57;;;;;;;;;2.33;1.67;;;;;17.82;100.00;99422.13;2062041;28;46389;-56
2023/10/30 01:03:57;;;;;;;;;1.67;1.33;;;;;17.80;100.00;99424.06;2062252;28;46566;-58
2023/10/30 01:04:57;;;;;;;;;1.00;1.00;;;;;17.79;100.00;99430.41;2053698;28;45427;-61
2023/10/30 01:05:59;;;;;;;;;0.33;0.33;;;;;17.76;100.00;99431.47;2053509;28;46440;-57
2023/10/30 01:07:01;;;;;;;;;2.00;2.00;;;;;17.74;100.00;99424.50;2062603;28;46436;-60
2023/10/30 01:08:08;;;;;;;;;1.00;1.00;;;;;17.74;100.00;99429.84;2062505;28;46498;-60
2023/10/30 01:09:08;;;;;;;;;1.00;1.00;;;;;17.72;100.00;99432.66;2061575;28;46628;-56
2023/10/30 01:10:09;;;;;;;;;0.00;0.00;;;;;17.72;100.00;99432.66;2061962;28;46305;-57
2023/10/30 01:11:09;;;;;;;;;1.67;1.33;;;;;17.73;100.00;99433.50;2062076;28;46481;-59
2023/10/30 01:12:10;;;;;;;;;2.33;0.00;;;;;17.73;100.00;99431.69;2062459;28;46577;-57
2023/10/30 01:13:10;;;;;;;;;2.00;2.00;;;;;17.73;100.00;99430.81;2062447;28;45761;-59
2023/10/30 01:14:10;;;;;;;;;2.33;2.33;;;;;17.74;100.00;99428.03;2062354;28;46445;-57
2023/10/30 01:15:11;;;;;;;;;2.33;1.67;;;;;17.81;100.00;99425.78;2062400;28;46368;-56
2023/10/30 01:16:11;;;;;;;;;3.00;3.00;;;;;17.83;100.00;99423.84;2062460;28;45687;-60
2023/10/30 01:17:11;;;;;;;;;1.67;1.33;;;;;17.84;100.00;99421.03;2062106;28;44990;-58
2023/10/30 01:18:11;;;;;;;;;3.67;3.67;;;;;17.85;100.00;99417.38;2095435;28;46719;-58
2023/10/30 01:19:12;;;;;;;;;5.00;3.33;;;;;17.83;100.00;99424.69;2095338;28;47047;-58
2023/10/30 01:20:12;;;;;;;;;5.00;4.00;;;;;17.86;100.00;99426.28;2061680;28;46155;-58
2023/10/30 01:21:15;;;;;;;;;1.67;1.67;;;;;17.87;100.00;99420.81;2061765;28;46480;-53
2023/10/30 01:22:15;;;;;;;;;2.00;1.75;;;;;17.87;100.00;99423.50;2058255;28;46705;-58
2023/10/30 01:23:16;;;;;;;;;0.67;0.67;;;;;17.89;100.00;99410.81;2061031;28;46786;-59
2023/10/30 01:24:16;;;;;;;;;1.00;1.00;;;;;17.90;100.00;99415.22;2062397;28;46492;-60
2023/10/30 01:25:17;;;;;;;;;2.33;2.33;;;;;17.88;100.00;99411.78;2062101;28;46586;-58
2023/10/30 01:26:17;;;;;;;;;2.00;2.00;;;;;17.88;100.00;99413.63;2062472;28;46358;-58
2023/10/30 01:27:17;;;;;;;;;1.00;1.00;;;;;17.86;100.00;99415.56;2061927;28;46321;-58
2023/10/30 01:28:18;;;;;;;;;1.00;1.00;;;;;17.79;100.00;99417.84;2103330;28;46609;-60
2023/10/30 01:29:18;;;;;;;;;2.00;2.00;;;;;17.85;100.00;99408.47;2095113;28;46168;-58
2023/10/30 01:30:19;;;;;;;;;3.33;2.67;;;;;17.87;100.00;99414.59;2095374;28;46098;-58
2023/10/30 01:31:21;;;;;;;;;4.00;2.00;;;;;17.87;100.00;99407.38;2104821;28;47045;-58
2023/10/30 01:32:21;;;;;;;;;0.00;0.00;;;;;17.88;100.00;99410.94;2105368;28;46383;-56
2023/10/30 01:33:23;;;;;;;;;1.67;0.33;;;;;17.87;100.00;99410.06;2104647;28;46587;-59
2023/10/30 01:34:23;;;;;;;;;3.50;1.50;;;;;17.90;100.00;99400.94;2105288;28;46522;-57
2023/10/30 01:35:23;;;;;;;;;3.33;0.33;;;;;17.92;100.00;99401.72;2105266;28;46321;-58
2023/10/30 01:36:24;;;;;;;;;2.33;1.33;;;;;17.91;100.00;99397.28;2105165;28;46685;-58
2023/10/30 01:37:25;;;;;;;;;1.00;1.00;;;;;17.90;100.00;99401.78;2105295;28;46482;-58
2023/10/30 01:38:25;;;;;;;;;1.00;0.67;;;;;17.88;100.00;99406.41;2105125;28;46729;-56
2023/10/30 01:39:25;;;;;;;;;1.67;1.67;;;;;17.88;100.00;99402.88;2104667;28;46473;-58
2023/10/30 01:40:26;;;;;;;;;0.00;0.00;;;;;17.87;100.00;99401.16;2105472;28;46334;-56
2023/10/30 01:41:26;;;;;;;;;4.33;2.67;;;;;17.86;100.00;99399.44;2104750;27;46451;-59
2023/10/30 01:42:26;;;;;;;;;1.67;1.33;;;;;17.87;100.00;99403.84;2105446;28;45704;-59
2023/10/30 01:43:29;;;;;;;;;3.33;2.00;;;;;17.88;100.00;99400.19;2096533;28;46281;-57
2023/10/30 01:44:29;;;;;;;;;1.25;0.00;;;;;17.87;100.00;99406.53;2096444;28;46371;-59
2023/10/30 01:45:29;;;;;;;;;1.67;0.67;;;;;17.85;100.00;99397.75;2097088;28;46268;-58
2023/10/30 01:46:29;;;;;;;;;2.67;1.33;;;;;17.82;100.00;99400.66;2096774;28;46505;-57
2023/10/30 01:47:30;;;;;;;;;1.00;1.00;;;;;17.80;100.00;99405.28;2105185;28;46331;-56
2023/10/30 01:48:33;;;;;;;;;4.33;3.00;;;;;17.80;100.00;99397.22;2104895;28;46912;-60
2023/10/30 01:49:35;;;;;;;;;0.50;0.50;;;;;17.76;100.00;99398.41;2104936;28;46789;-57
2023/10/30 01:50:36;;;;;;;;;1.00;1.00;;;;;17.77;100.00;99395.59;2105086;28;46722;-59
2023/10/30 01:51:37;;;;;;;;;1.25;0.75;;;;;17.78;100.00;99396.47;2105836;28;45863;-57
2023/10/30 01:52:37;;;;;;;;;1.33;1.00;;;;;17.76;100.00;99393.88;2104673;28;46494;-56
2023/10/30 01:53:38;;;;;;;;;2.00;2.00;;;;;17.75;100.00;99396.69;2105318;28;46854;-55
2023/10/30 01:54:38;;;;;;;;;1.00;1.00;;;;;17.74;100.00;99397.66;2104667;28;47357;-59
2023/10/30 01:55:39;;;;;;;;;2.00;1.67;;;;;17.74;100.00;99397.66;2105347;28;46420;-59
2023/10/30 01:56:40;;;;;;;;;0.33;0.00;;;;;17.73;100.00;99399.47;2104761;28;46760;-58
2023/10/30 01:57:42;;;;;;;;;3.00;2.00;;;;;17.73;100.00;99395.94;2105031;28;46565;-60
2023/10/30 01:58:43;;;;;;;;;3.00;2.75;;;;;17.70;100.00;99399.72;2062517;28;46882;-56
2023/10/30 01:59:44;;;;;;;;;2.25;2.25;;;;;17.66;100.00;99395.50;2052621;28;46955;-54
2023/10/30 02:00:46;;;;;;;;;0.75;0.00;;;;;17.64;100.00;99392.06;2049358;28;46271;-59
2023/10/30 02:01:46;;;;;;;;;2.00;1.00;;;;;17.61;100.00;99392.28;2063074;28;45795;-57
2023/10/30 02:02:49;;;;;;;;;2.00;1.67;;;;;17.61;100.00;99390.47;2062985;28;46271;-58
2023/10/30 02:03:51;;;;;;;;;2.00;1.00;;;;;17.68;100.00;99390.03;2063626;28;45773;-59
2023/10/30 02:04:51;;;;;;;;;10.50;10.25;;;;;17.72;100.00;99380.81;2063061;28;46391;-59
2023/10/30 02:05:52;;;;;;;;;19.75;16.50;;;;;17.73;100.00;99385.22;2062985;28;46944;-63
2023/10/30 02:06:52;;;;;;;;;23.50;23.50;;;;;17.75;100.00;99380.59;2062578;28;46255;-59
2023/10/30 02:07:52;;;;;;;;;20.50;19.00;;;;;17.77;100.00;99378.66;2062837;28;46477;-57
2023/10/30 02:08:53;;;;;;;;;39.00;33.75;;;;;17.77;100.00;99379.50;2062796;28;46619;-56
2023/10/30 02:09:54;;;;;;;;;32.00;28.75;;;;;17.77;100.00;99379.50;2062817;28;46291;-60
2023/10/30 02:10:54;;;;;;;;;26.00;25.25;;;;;17.76;100.00;99377.78;2062047;28;46243;-59
2023/10/30 02:11:56;;;;;;;;;62.75;50.00;;;;;17.75;100.00;99381.44;2112876;27;45712;-57
2023/10/30 02:12:56;;;;;;;;;55.40;45.00;;;;;17.76;100.00;99380.47;2112984;27;46479;-58
2023/10/30 02:13:56;;;;;;;;;64.00;50.00;;;;;17.77;100.00;99375.97;2112963;27;46300;-59
2023/10/30 02:14:57;;;;;;;;;33.50;29.75;;;;;17.80;100.00;99381.13;2113671;27;45794;-58
2023/10/30 02:15:57;;;;;;;;;69.25;58.25;;;;;17.79;100.00;99384.78;2113001;27;46679;-59
2023/10/30 02:16:57;;;;;;;;;82.25;76.00;;;;;17.78;100.00;99381.22;2112896;27;46697;-58
2023/10/30 02:17:58;;;;;;;;;164.75;155.50;;;;;17.79;100.00;99385.63;2113466;27;46891;-57
2023/10/30 02:18:58;;;;;;;;;190.50;171.50;;;;;17.78;100.00;99380.34;2113537;27;47175;-59
2023/10/30 02:19:58;;;;;;;;;153.33;138.67;;;;;17.79;100.00;99382.09;2113402;27;48188;-59
2023/10/30 02:20:59;;;;;;;;;135.33;125.00;;;;;17.79;100.00;99384.78;2113434;27;46571;-55
2023/10/30 02:21:59;;;;;;;;;96.00;93.00;;;;;17.79;100.00;99374.06;2109276;27;46555;-58
2023/10/30 02:23:00;;;;;;;;;103.33;96.67;;;;;17.80;100.00;99384.66;2095894;28;46711;-58
2023/10/30 02:24:06;;;;;;;;;158.00;144.75;;;;;17.81;100.00;99385.53;2103781;28;46877;-58
2023/10/30 02:25:08;;;;;;;;;238.25;218.75;;;;;17.80;100.00;99376.63;2104281;28;46891;-58
2023/10/30 02:26:08;;;;;;;;;72.50;64.25;;;;;17.80;100.00;99383.81;2104366;28;46484;-56
2023/10/30 02:27:09;;;;;;;;;92.25;82.00;;;;;17.81;100.00;99381.00;2104566;28;45665;-60
2023/10/30 02:28:09;;;;;;;;;76.75;69.50;;;;;17.81;100.00;99381.00;2104887;28;46386;-59
2023/10/30 02:29:10;;;;;;;;;89.50;85.25;;;;;17.82;100.00;99388.09;2105258;28;45871;-56
2023/10/30 02:30:13;;;;;;;;;90.25;87.75;;;;;17.82;100.00;99382.72;2099735;28;46389;-58
2023/10/30 02:31:14;;;;;;;;;85.50;82.50;;;;;17.82;100.00;99384.56;2097132;28;45531;-55
2023/10/30 02:32:14;;;;;;;;;73.50;65.00;;;;;17.80;100.00;99387.34;2105012;28;46881;-57
2023/10/30 02:33:14;;;;;;;;;80.50;77.00;;;;;17.78;100.00;99383.03;2104339;28;45161;-58
2023/10/30 02:34:15;;;;;;;;;66.00;52.25;;;;;17.79;100.00;99382.09;2104689;28;46295;-56
2023/10/30 02:35:16;;;;;;;;;52.00;42.75;;;;;17.80;100.00;99375.75;2104470;28;46511;-58
2023/10/30 02:36:16;;;;;;;;;57.80;45.80;;;;;17.78;100.00;99383.03;2104987;28;46612;-58
2023/10/30 02:37:17;;;;;;;;;63.75;51.00;;;;;17.77;100.00;99371.44;2104391;28;46439;-58
2023/10/30 02:38:17;;;;;;;;;74.25;67.25;;;;;17.78;100.00;99383.03;2090883;28;46489;-59
2023/10/30 02:39:17;;;;;;;;;82.25;75.00;;;;;17.77;100.00;99376.81;2090838;28;45957;-49
2023/10/30 02:40:18;;;;;;;;;88.00;82.50;;;;;17.78;100.00;99375.00;2104464;28;46454;-54
2023/10/30 02:41:21;;;;;;;;;99.67;94.00;;;;;17.79;100.00;99379.41;2104572;28;46742;-58
2023/10/30 02:42:22;;;;;;;;;72.20;60.40;;;;;17.78;100.00;99366.94;2103407;28;46853;-56
2023/10/30 02:43:22;;;;;;;;;60.00;47.75;;;;;17.78;100.00;99373.16;2094535;28;47022;-58
2023/10/30 02:44:23;;;;;;;;;45.50;37.25;;;;;17.78;100.00;99377.69;2062216;28;46701;-59
2023/10/30 02:45:23;;;;;;;;;55.50;44.50;;;;;17.76;100.00;99372.41;2062330;28;46206;-58
2023/10/30 02:46:24;;;;;;;;;62.00;49.00;;;;;17.77;100.00;99375.97;2061846;28;46266;-58
2023/10/30 02:47:24;;;;;;;;;51.50;43.00;;;;;17.76;100.00;99364.38;2062393;28;46130;-56
2023/10/30 02:48:24;;;;;;;;;42.50;36.00;;;;;17.75;100.00;99362.66;2061813;28;47044;-57
2023/10/30 02:49:25;;;;;;;;;44.00;35.50;;;;;17.74;100.00;99360.94;2062352;28;45768;-55
2023/10/30 02:50:25;;;;;;;;;34.00;30.25;;;;;17.75;100.00;99362.66;2062207;28;45850;-59
2023/10/30 02:51:26;;;;;;;;;29.75;26.25;;;;;17.75;100.00;99362.66;2061771;28;46289;-58
2023/10/30 02:52:26;;;;;;;;;23.00;21.25;;;;;17.75;100.00;99359.13;2062315;28;45569;-57
2023/10/30 02:53:26;;;;;;;;;25.00;22.25;;;;;17.76;100.00;99360.84;2061935;28;46515;-57
2023/10/30 02:54:27;;;;;;;;;9.33;9.33;;;;;17.76;100.00;99355.47;2062407;28;46062;-56
2023/10/30 02:55:27;;;;;;;;;19.00;16.33;;;;;17.76;100.00;99359.00;2063180;28;46692;-58
2023/10/30 02:56:27;;;;;;;;;19.00;17.33;;;;;17.74;100.00;99358.25;2056105;28;46558;-54
2023/10/30 02:57:28;;;;;;;;;10.00;10.00;;;;;17.74;100.00;99360.09;2054944;28;46775;-59
2023/10/30 02:58:28;;;;;;;;;10.00;7.00;;;;;17.75;100.00;99357.28;2054449;28;46413;-59
2023/10/30 02:59:28;;;;;;;;;10.67;7.33;;;;;17.74;100.00;99350.22;2060074;28;47282;-59
2023/10/30 03:00:29;;;;;;;;;25.50;23.75;;;;;17.75;100.00;99353.75;2062902;28;46645;-59
2023/10/30 03:01:29;;;;;;;;;11.00;10.67;;;;;17.73;100.00;99351.19;2063224;28;46411;-60
2023/10/30 03:02:30;;;;;;;;;14.67;10.33;;;;;17.73;100.00;99347.66;2063219;28;46685;-56
2023/10/30 03:03:30;;;;;;;;;12.33;11.00;;;;;17.70;100.00;99351.41;2062891;28;46258;-59
2023/10/30 03:04:30;;;;;;;;;22.00;20.75;;;;;17.70;100.00;99351.41;2062893;28;46711;-56
2023/10/30 03:05:31;;;;;;;;;20.50;17.75;;;;;17.68;100.00;99353.31;2063028;28;46314;-55
2023/10/30 03:06:31;;;;;;;;;18.33;16.00;;;;;17.67;100.00;99346.25;2063157;28;46514;-57
2023/10/30 03:07:32;;;;;;;;;10.00;9.00;;;;;17.67;100.00;99354.31;2063025;28;46669;-59
2023/10/30 03:08:32;;;;;;;;;13.67;12.00;;;;;17.66;100.00;99349.91;2063128;28;45610;-60
2023/10/30 03:09:35;;;;;;;;;11.33;11.33;;;;;17.67;100.00;99348.06;2055390;28;46645;-58
2023/10/30 03:10:35;;;;;;;;;11.00;10.50;;;;;17.64;100.00;99355.34;2057470;28;46921;-57
2023/10/30 03:11:35;;;;;;;;;8.67;8.67;;;;;17.64;100.00;99346.44;2062964;28;46643;-57
2023/10/30 03:12:36;;;;;;;;;4.00;4.00;;;;;17.63;100.00;99340.22;2063194;28;45765;-58
2023/10/30 03:13:36;;;;;;;;;6.67;6.00;;;;;17.61;100.00;99342.16;2062361;28;45919;-55
2023/10/30 03:14:37;;;;;;;;;6.00;5.33;;;;;17.61;100.00;99338.63;2062605;28;45733;-58
2023/10/30 03:15:37;;;;;;;;;6.67;6.00;;;;;17.61;100.00;99344.00;2070184;28;47046;-58
2023/10/30 03:16:37;;;;;;;;;4.00;4.00;;;;;17.55;100.00;99342.63;2055049;28;46181;-59
2023/10/30 03:17:38;;;;;;;;;6.33;5.00;;;;;17.61;100.00;99341.31;2061055;28;46584;-54
2023/10/30 03:18:39;;;;;;;;;9.00;9.00;;;;;17.60;100.00;99339.59;2063249;28;46082;-57
2023/10/30 03:19:39;;;;;;;;;6.00;6.00;;;;;17.60;100.00;99337.78;2062326;28;46546;-58
2023/10/30 03:20:39;;;;;;;;;5.33;5.00;;;;;17.60;100.00;99336.91;2057900;28;46481;-58
2023/10/30 03:21:40;;;;;;;;;9.00;7.00;;;;;17.48;100.00;99333.28;2070254;28;46838;-57
2023/10/30 03:22:40;;;;;;;;;6.33;3.00;;;;;17.45;100.00;99330.84;2062279;28;46599;-60
2023/10/30 03:23:41;;;;;;;;;6.67;4.67;;;;;17.46;100.00;99323.66;2062567;28;46175;-56
2023/10/30 03:24:41;;;;;;;;;5.33;3.33;;;;;17.44;100.00;99322.91;2062583;28;46273;-57
2023/10/30 03:25:42;;;;;;;;;2.33;2.00;;;;;17.46;100.00;99323.66;2061981;28;47660;-57
2023/10/30 03:26:42;;;;;;;;;5.33;5.33;;;;;17.41;100.00;99328.50;2063192;28;45588;-58
2023/10/30 03:27:43;;;;;;;;;7.67;7.00;;;;;17.40;100.00;99324.06;2063184;28;46624;-58
2023/10/30 03:28:43;;;;;;;;;6.00;6.00;;;;;17.39;100.00;99319.69;2062231;28;46788;-58
2023/10/30 03:29:43;;;;;;;;;5.33;4.33;;;;;17.39;100.00;99319.69;2062594;28;46355;-58
2023/10/30 03:30:45;;;;;;;;;2.67;2.67;;;;;17.38;100.00;99321.50;2062581;28;45034;-55
2023/10/30 03:31:46;;;;;;;;;3.75;3.75;;;;;17.35;100.00;99316.38;2060414;28;46197;-56
2023/10/30 03:32:46;;;;;;;;;3.67;3.67;;;;;17.36;100.00;99315.41;2062785;28;46180;-59
2023/10/30 03:33:46;;;;;;;;;6.00;5.67;;;;;17.34;100.00;99306.63;2062790;28;46519;-56
2023/10/30 03:34:46;;;;;;;;;5.00;3.67;;;;;17.35;100.00;99300.28;2062509;28;46345;-53
2023/10/30 03:35:47;;;;;;;;;3.00;3.00;;;;;17.35;100.00;99309.19;2062342;28;46159;-57
2023/10/30 03:36:47;;;;;;;;;3.33;2.67;;;;;17.32;100.00;99301.38;2059464;28;46542;-53
2023/10/30 03:37:48;;;;;;;;;4.67;4.67;;;;;17.34;100.00;99306.63;2054782;28;46820;-53
2023/10/30 03:38:48;;;;;;;;;3.67;3.67;;;;;17.33;100.00;99305.75;2060329;28;46303;-58
2023/10/30 03:39:49;;;;;;;;;5.67;3.00;;;;;17.34;100.00;99303.94;2062926;28;45295;-58
2023/10/30 03:40:49;;;;;;;;;2.67;1.00;;;;;17.33;100.00;99305.75;2062947;28;45242;-58
2023/10/30 03:41:50;;;;;;;;;4.00;3.67;;;;;17.32;100.00;99301.38;2062900;28;46335;-60
2023/10/30 03:42:50;;;;;;;;;4.00;3.00;;;;;17.31;100.00;99299.66;2062872;28;46550;-59
2023/10/30 03:43:51;;;;;;;;;2.67;1.00;;;;;17.31;100.00;99299.66;2062730;28;46417;-56
2023/10/30 03:44:51;;;;;;;;;3.00;1.67;;;;;17.29;100.00;99300.75;2061966;28;46846;-57
2023/10/30 03:45:52;;;;;;;;;1.33;1.33;;;;;17.29;100.00;99304.28;2054622;28;46658;-60
2023/10/30 03:46:52;;;;;;;;;2.67;2.00;;;;;17.28;100.00;99304.41;2059144;28;45555;-56
2023/10/30 03:47:53;;;;;;;;;0.00;0.00;;;;;17.27;100.00;99302.66;2063234;28;46650;-56
2023/10/30 03:48:53;;;;;;;;;1.00;1.00;;;;;17.26;100.00;99303.63;2062884;28;46216;-56
2023/10/30 03:49:53;;;;;;;;;1.33;1.33;;;;;17.24;100.00;99303.72;2062156;28;46763;-57
2023/10/30 03:50:54;;;;;;;;;1.00;1.00;;;;;17.23;100.00;99312.75;2062142;28;46795;-54
2023/10/30 03:51:54;;;;;;;;;2.00;2.00;;;;;17.20;100.00;99314.78;2062893;28;46267;-58
2023/10/30 03:52:54;;;;;;;;;1.50;1.50;;;;;17.19;100.00;99316.63;2062298;28;46273;-55
2023/10/30 03:53:55;;;;;;;;;2.67;2.67;;;;;17.19;100.00;99318.44;2062470;28;46278;-57
2023/10/30 03:54:59;;;;;;;;;3.00;1.67;;;;;17.18;100.00;99314.91;2054297;28;46737;-59
2023/10/30 03:56:04;;;;;;;;;0.00;0.00;;;;;17.18;100.00;99308.69;2061876;28;46531;-59
2023/10/30 03:57:08;;;;;;;;;1.00;1.00;;;;;17.17;100.00;99310.50;2054821;28;46363;-59
2023/10/30 03:58:08;;;;;;;;;3.75;2.00;;;;;17.16;100.00;99314.16;2062904;28;45686;-58
2023/10/30 03:59:09;;;;;;;;;1.33;1.33;;;;;17.14;100.00;99313.38;2062959;28;45705;-56
2023/10/30 04:00:10;;;;;;;;;3.75;3.00;;;;;17.14;100.00;99312.53;2062401;28;46331;-61
2023/10/30 04:01:11;;;;;;;;;1.25;1.25;;;;;17.13;100.00;99311.69;2061352;28;46423;-54
2023/10/30 04:02:11;;;;;;;;;2.00;1.00;;;;;17.12;100.00;99309.97;2061877;28;46595;-58
2023/10/30 04:03:11;;;;;;;;;1.00;1.00;;;;;17.11;100.00;99310.06;2062965;28;46300;-59
2023/10/30 04:04:12;;;;;;;;;3.00;3.00;;;;;17.09;100.00;99301.28;2062712;28;46765;-55
2023/10/30 04:05:12;;;;;;;;;0.67;0.67;;;;;17.06;100.00;99302.38;2062651;28;46174;-56
2023/10/30 04:06:12;;;;;;;;;2.67;2.33;;;;;17.05;100.00;99301.53;2062458;28;46259;-59
2023/10/30 04:07:13;;;;;;;;;2.00;0.00;;;;;17.04;100.00;99307.84;2062737;28;46405;-58
2023/10/30 04:08:13;;;;;;;;;1.33;1.33;;;;;17.03;100.00;99303.44;2062944;28;46629;-57
2023/10/30 04:09:13;;;;;;;;;2.67;2.00;;;;;17.03;100.00;99308.81;2063136;28;45830;-58
2023/10/30 04:10:14;;;;;;;;;3.33;1.00;;;;;17.03;100.00;99307.97;2062714;28;46650;-56
2023/10/30 04:11:16;;;;;;;;;2.00;1.00;;;;;17.01;100.00;99308.03;2063101;28;46218;-59
2023/10/30 04:12:20;;;;;;;;;0.00;0.00;;;;;17.01;100.00;99305.34;2062947;28;47115;-58
2023/10/30 04:13:21;;;;;;;;;0.75;0.75;;;;;17.00;100.00;99297.44;2062645;28;46627;-58
2023/10/30 04:14:21;;;;;;;;;2.25;2.25;;;;;16.99;100.00;99304.63;2062678;28;46757;-60
2023/10/30 04:15:21;;;;;;;;;1.67;1.67;;;;;16.99;100.00;99296.56;2062385;28;46199;-56
2023/10/30 04:16:22;;;;;;;;;0.33;0.33;;;;;16.99;100.00;99298.41;2062708;28;46648;-55
2023/10/30 04:17:23;;;;;;;;;1.33;1.33;;;;;17.00;100.00;99292.06;2063117;28;46249;-60
2023/10/30 04:18:23;;;;;;;;;1.33;1.33;;;;;17.00;100.00;99295.59;2062321;28;46708;-60
2023/10/30 04:19:24;;;;;;;;;2.00;2.00;;;;;17.01;100.00;99289.28;2062638;28;46421;-57
2023/10/30 04:20:24;;;;;;;;;1.00;0.67;;;;;17.01;100.00;99283.06;2062879;28;45949;-58
2023/10/30 04:21:24;;;;;;;;;0.67;0.67;;;;;16.98;100.00;99280.59;2062358;28;46308;-56
2023/10/30 04:22:25;;;;;;;;;2.33;1.00;;;;;16.97;100.00;99285.09;2055455;28;45895;-56
2023/10/30 04:23:25;;;;;;;;;0.00;0.00;;;;;16.99;100.00;99287.69;2054953;28;46652;-59
2023/10/30 04:24:25;;;;;;;;;2.00;2.00;;;;;16.99;100.00;99285.00;2054267;28;46416;-60
2023/10/30 04:25:26;;;;;;;;;1.00;1.00;;;;;16.99;100.00;99282.31;2054679;28;46218;-56
2023/10/30 04:26:26;;;;;;;;;2.00;1.33;;;;;16.99;100.00;99285.84;2054457;28;46279;-59
2023/10/30 04:27:27;;;;;;;;;4.00;2.67;;;;;16.98;100.00;99285.97;2054362;28;46245;-60
2023/10/30 04:28:27;;;;;;;;;2.00;1.00;;;;;16.98;100.00;99288.66;2054630;28;45218;-58
2023/10/30 04:29:28;;;;;;;;;2.00;0.67;;;;;16.98;100.00;99288.66;2054730;28;46274;-60
2023/10/30 04:30:28;;;;;;;;;5.67;2.33;;;;;16.97;100.00;99297.66;2054201;28;46361;-58
2023/10/30 04:31:28;;;;;;;;;2.33;1.00;;;;;16.94;100.00;99295.19;2056592;28;46632;-59
2023/10/30 04:32:29;;;;;;;;;3.00;2.00;;;;;16.96;100.00;99304.84;2062579;28;46738;-55
2023/10/30 04:33:29;;;;;;;;;2.00;1.00;;;;;16.97;100.00;99306.56;2062698;28;46488;-59
2023/10/30 04:34:30;;;;;;;;;1.00;1.00;;;;;16.99;100.00;99303.75;2062531;28;46911;-58
2023/10/30 04:35:30;;;;;;;;;1.25;1.25;;;;;16.97;100.00;99313.72;2062277;28;46639;-56
2023/10/30 04:36:31;;;;;;;;;2.33;2.33;;;;;16.98;100.00;99321.66;2054325;28;45591;-55
2023/10/30 04:37:31;;;;;;;;;1.00;1.00;;;;;16.98;100.00;99310.09;2054185;28;46279;-58
2023/10/30 04:38:32;;;;;;;;;0.33;0.33;;;;;16.96;100.00;99318.25;2055553;28;46475;-59
2023/10/30 04:39:32;;;;;;;;;3.00;2.50;;;;;16.95;100.00;99316.53;2059360;28;46608;-57
2023/10/30 04:40:33;;;;;;;;;2.00;2.00;;;;;16.95;100.00;99318.34;2062159;28;46480;-54